Time,TemperatureF,DewpointF,PressureIn,WindDirection,WindDirectionDegrees,WindSpeedMPH,WindSpeedGustMPH,Humidity,HourlyPrecipIn,Conditions,Clouds,dailyrainin,SoftwareType,DateUTC
2013-07-28 00:02:00,49.8,47.0,30.14,SSW,193,1.0,-999.0,89,-99.99,,,0.00,weatherlink.com 1.10,2013-07-28 06:02:00,
2013-07-28 00:17:00,48.9,46.0,30.14,SSW,193,1.0,-999.0,89,-99.99,,,0.00,weatherlink.com 1.10,2013-07-28 06:17:00,
2013-07-28 00:32:00,48.5,46.0,30.14,SSW,193,2.0,-999.0,89,-99.99,,,0.00,weatherlink.com 1.10,2013-07-28 06:32:00,
2013-07-28 00:47:00,48.6,46.0,30.14,SSW,193,1.0,-999.0,90,-99.99,,,0.00,weatherlink.com 1.10,2013-07-28 06:47:00,
2013-07-28 01:02:00,48.7,46.0,30.14,SSW,193,0.0,-999.0,90,-99.99,,,0.00,weatherlink.com 1.10,2013-07-28 07:02:00,
2013-07-28 01:17:00,48.8,46.0,30.14,SSW,193,0.0,-999.0,90,-99.99,,,0.00,weatherlink.com 1.10,2013-07-28 07:17:00,
2013-07-28 01:32:00,48.7,46.0,30.13,SSW,193,0.0,-999.0,90,-99.99,,,0.00,weatherlink.com 1.10,2013-07-28 07:32:00,
2013-07-28 01:47:00,49.0,46.0,30.13,SSW,193,0.0,-999.0,90,-99.99,,,0.00,weatherlink.com 1.10,2013-07-28 07:47:00,
2013-07-28 02:02:00,48.3,45.0,30.13,SSW,193,1.0,-999.0,89,-99.99,,,0.00,weatherlink.com 1.10,2013-07-28 08:02:00,
2013-07-28 02:17:00,48.1,45.0,30.13,SSW,193,3.0,-999.0,90,-99.99,,,0.00,weatherlink.com 1.10,2013-07-28 08:17:00,
2013-07-28 02:32:00,48.0,45.0,30.12,South,186,3.0,-999.0,89,-99.99,,,0.00,weatherlink.com 1.10,2013-07-28 08:32:00,
2013-07-28 02:47:00,47.8,45.0,30.13,South,183,0.0,-999.0,89,-99.99,,,0.00,weatherlink.com 1.10,2013-07-28 08:47:00,
2013-07-28 03:02:00,46.9,44.0,30.13,South,183,0.0,-999.0,88,-99.99,,,0.00,weatherlink.com 1.10,2013-07-28 09:02:00,
2013-07-28 03:17:00,46.5,43.0,30.13,South,183,0.0,-999.0,88,-99.99,,,0.00,weatherlink.com 1.10,2013-07-28 09:17:00,
2013-07-28 03:32:00,46.5,44.0,30.12,South,183,0.0,-999.0,90,-99.99,,,0.00,weatherlink.com 1.10,2013-07-28 09:32:00,
2013-07-28 03:47:00,46.3,43.0,30.12,South,183,1.0,-999.0,88,-99.99,,,0.00,weatherlink.com 1.10,2013-07-28 09:47:00,
2013-07-28 04:02:00,45.5,43.0,30.12,South,183,1.0,-999.0,89,-99.99,,,0.00,weatherlink.com 1.10,2013-07-28 10:02:00,
2013-07-28 04:17:00,45.2,43.0,30.12,South,183,0.0,-999.0,90,-99.99,,,0.00,weatherlink.com 1.10,2013-07-28 10:17:00,
2013-07-28 04:32:00,45.1,42.0,30.12,South,183,0.0,-999.0,90,-99.99,,,0.00,weatherlink.com 1.10,2013-07-28 10:32:00,
2013-07-28 04:47:00,45.6,43.0,30.12,South,182,1.0,-999.0,91,-99.99,,,0.00,weatherlink.com 1.10,2013-07-28 10:47:00,
2013-07-28 05:02:00,46.0,43.0,30.12,South,183,1.0,-999.0,89,-99.99,,,0.00,weatherlink.com 1.10,2013-07-28 11:02:00,
2013-07-28 05:17:00,46.4,43.0,30.11,South,183,0.0,-999.0,87,-99.99,,,0.00,weatherlink.com 1.10,2013-07-28 11:17:00,
2013-07-28 05:32:00,45.2,41.0,30.11,South,183,0.0,-999.0,86,-99.99,,,0.00,weatherlink.com 1.10,2013-07-28 11:32:00,
2013-07-28 05:47:00,44.5,41.0,30.11,South,182,1.0,-999.0,87,-99.99,,,0.00,weatherlink.com 1.10,2013-07-28 11:47:00,
2013-07-28 06:02:00,43.7,40.0,30.12,South,183,0.0,-999.0,88,-99.99,,,0.00,weatherlink.com 1.10,2013-07-28 12:02:00,
2013-07-28 06:17:00,43.5,40.0,30.13,South,183,0.0,-999.0,88,-99.99,,,0.00,weatherlink.com 1.10,2013-07-28 12:17:00,
2013-07-28 06:32:00,43.6,41.0,30.13,South,183,0.0,-999.0,89,-99.99,,,0.00,weatherlink.com 1.10,2013-07-28 12:32:00,
2013-07-28 06:47:00,44.1,41.0,30.13,South,183,0.0,-999.0,90,-99.99,,,0.00,weatherlink.com 1.10,2013-07-28 12:47:00,
2013-07-28 07:02:00,46.2,44.0,30.14,South,184,0.0,-999.0,90,-99.99,,,0.00,weatherlink.com 1.10,2013-07-28 13:02:00,
2013-07-28 07:17:00,48.8,45.0,30.14,South,184,0.0,-999.0,88,-99.99,,,0.00,weatherlink.com 1.10,2013-07-28 13:17:00,
2013-07-28 07:32:00,48.4,44.0,30.15,South,184,0.0,-999.0,85,-99.99,,,0.00,weatherlink.com 1.10,2013-07-28 13:32:00,
2013-07-28 07:47:00,48.9,45.0,30.14,South,184,0.0,-999.0,87,-99.99,,,0.00,weatherlink.com 1.10,2013-07-28 13:47:00,
2013-07-28 08:02:00,50.3,46.0,30.15,South,184,0.0,-999.0,85,-99.99,,,0.00,weatherlink.com 1.10,2013-07-28 14:02:00,
2013-07-28 08:17:00,51.4,47.0,30.15,South,184,0.0,-999.0,85,-99.99,,,0.00,weatherlink.com 1.10,2013-07-28 14:17:00,
2013-07-28 08:32:00,52.6,48.0,30.15,South,184,0.0,-999.0,83,-99.99,,,0.00,weatherlink.com 1.10,2013-07-28 14:32:00,
2013-07-28 08:46:00,53.9,49.0,30.15,South,184,0.0,-999.0,84,-99.99,,,0.00,weatherlink.com 1.10,2013-07-28 14:46:00,
2013-07-28 09:01:00,56.3,50.0,30.14,South,183,2.0,-999.0,79,-99.99,,,0.00,weatherlink.com 1.10,2013-07-28 15:01:00,
2013-07-28 09:16:00,60.1,51.0,30.14,South,184,1.0,-999.0,71,-99.99,,,0.00,weatherlink.com 1.10,2013-07-28 15:16:00,
2013-07-28 09:31:00,64.5,50.0,30.14,SSW,198,4.0,-999.0,59,-99.99,,,0.01,weatherlink.com 1.10,2013-07-28 15:31:00,
2013-07-28 09:46:00,66.3,52.0,30.14,SSW,203,3.0,-999.0,61,-99.99,,,0.01,weatherlink.com 1.10,2013-07-28 15:46:00,
2013-07-28 10:01:00,67.1,50.0,30.14,SSW,198,1.0,-999.0,55,-99.99,,,0.01,weatherlink.com 1.10,2013-07-28 16:01:00,
2013-07-28 10:16:00,69.1,51.0,30.13,WSW,248,6.0,-999.0,52,-99.99,,,0.01,weatherlink.com 1.10,2013-07-28 16:16:00,
2013-07-28 10:31:00,69.7,51.0,30.13,SSW,213,5.0,-999.0,51,-99.99,,,0.01,weatherlink.com 1.10,2013-07-28 16:31:00,
2013-07-28 11:02:00,71.6,49.0,30.13,SW,227,8.0,-999.0,45,-99.99,,,0.01,weatherlink.com 1.10,2013-07-28 17:02:00,
2013-07-28 11:16:00,72.6,49.0,30.13,WSW,257,4.0,-999.0,44,-99.99,,,0.01,weatherlink.com 1.10,2013-07-28 17:16:00,
2013-07-28 11:31:00,72.5,50.0,30.12,WNW,282,6.0,-999.0,46,-99.99,,,0.01,weatherlink.com 1.10,2013-07-28 17:31:00,
2013-07-28 11:47:00,73.6,51.0,30.12,SSW,212,4.0,-999.0,46,-99.99,,,0.01,weatherlink.com 1.10,2013-07-28 17:47:00,
2013-07-28 12:01:00,73.5,51.0,30.12,SW,221,10.0,-999.0,46,-99.99,,,0.01,weatherlink.com 1.10,2013-07-28 18:01:00,
2013-07-28 12:17:00,73.9,51.0,30.12,WSW,239,10.0,-999.0,45,-99.99,,,0.01,weatherlink.com 1.10,2013-07-28 18:17:00,
2013-07-28 12:32:00,74.0,51.0,30.11,WSW,242,4.0,-999.0,44,-99.99,,,0.01,weatherlink.com 1.10,2013-07-28 18:32:00,
2013-07-28 13:02:00,74.3,52.0,30.10,WNW,282,4.0,-999.0,46,-99.99,,,0.01,weatherlink.com 1.10,2013-07-28 19:02:00,
2013-07-28 13:16:00,76.1,53.0,30.09,West,275,4.0,-999.0,44,-99.99,,,0.01,weatherlink.com 1.10,2013-07-28 19:16:00,
2013-07-28 13:31:00,74.8,51.0,30.08,NNW,336,4.0,-999.0,44,-99.99,,,0.01,weatherlink.com 1.10,2013-07-28 19:31:00,
2013-07-28 13:46:00,74.0,52.0,30.07,NNW,329,4.0,-999.0,46,-99.99,,,0.01,weatherlink.com 1.10,2013-07-28 19:46:00,
2013-07-28 14:02:00,76.0,52.0,30.07,NNW,342,4.0,-999.0,43,-99.99,,,0.01,weatherlink.com 1.10,2013-07-28 20:02:00,
2013-07-28 14:17:00,74.9,51.0,30.07,NNW,333,0.0,-999.0,43,-99.99,,,0.01,weatherlink.com 1.10,2013-07-28 20:17:00,
2013-07-28 14:32:00,75.1,50.0,30.06,NNW,333,4.0,-999.0,41,-99.99,,,0.01,weatherlink.com 1.10,2013-07-28 20:32:00,
2013-07-28 14:47:00,76.8,50.0,30.05,NNW,345,2.0,-999.0,39,-99.99,,,0.01,weatherlink.com 1.10,2013-07-28 20:47:00,
2013-07-28 15:02:00,77.7,51.0,30.04,NW,309,2.0,-999.0,40,-99.99,,,0.01,weatherlink.com 1.10,2013-07-28 21:02:00,
2013-07-28 15:16:00,77.8,49.0,30.04,NW,308,1.0,-999.0,37,-99.99,,,0.01,weatherlink.com 1.10,2013-07-28 21:16:00,
2013-07-28 15:32:00,77.3,45.0,30.05,West,261,11.0,-999.0,32,-99.99,,,0.01,weatherlink.com 1.10,2013-07-28 21:32:00,
2013-07-28 15:46:00,76.8,45.0,30.05,WSW,250,12.0,-999.0,32,-99.99,,,0.01,weatherlink.com 1.10,2013-07-28 21:46:00,
2013-07-28 16:01:00,75.5,46.0,30.05,WSW,240,13.0,-999.0,35,-99.99,,,0.01,weatherlink.com 1.10,2013-07-28 22:01:00,
2013-07-28 16:16:00,74.1,46.0,30.06,WSW,238,4.0,-999.0,37,-99.99,,,0.01,weatherlink.com 1.10,2013-07-28 22:16:00,
2013-07-28 16:32:00,73.3,47.0,30.07,WSW,257,4.0,-999.0,40,-99.99,,,0.01,weatherlink.com 1.10,2013-07-28 22:32:00,
2013-07-28 16:48:00,67.0,44.0,30.09,NW,315,23.0,-999.0,43,-99.99,,,0.01,weatherlink.com 1.10,2013-07-28 22:48:00,
2013-07-28 17:02:00,59.0,46.0,30.12,NW,322,11.0,-999.0,63,-99.99,,,0.02,weatherlink.com 1.10,2013-07-28 23:02:00,
2013-07-28 17:17:00,58.3,47.0,30.14,NNE,19,7.0,-999.0,66,-99.99,,,0.03,weatherlink.com 1.10,2013-07-28 23:17:00,
2013-07-28 17:32:00,57.5,47.0,30.16,East,93,12.0,-999.0,69,-99.99,,,0.03,weatherlink.com 1.10,2013-07-28 23:32:00,
2013-07-28 17:47:00,59.1,47.0,30.15,East,90,10.0,-999.0,65,-99.99,,,0.03,weatherlink.com 1.10,2013-07-28 23:47:00,
2013-07-28 18:02:00,58.6,48.0,30.13,East,99,9.0,-999.0,68,-99.99,,,0.03,weatherlink.com 1.10,2013-07-29 00:02:00,
2013-07-28 18:17:00,60.9,47.0,30.12,ESE,123,7.0,-999.0,60,-99.99,,,0.03,weatherlink.com 1.10,2013-07-29 00:17:00,
2013-07-28 18:32:00,63.2,49.0,30.12,WSW,244,5.0,-999.0,60,-99.99,,,0.03,weatherlink.com 1.10,2013-07-29 00:32:00,
2013-07-28 18:47:00,63.2,50.0,30.11,West,272,6.0,-999.0,63,-99.99,,,0.03,weatherlink.com 1.10,2013-07-29 00:47:00,
2013-07-28 19:02:00,63.1,50.0,30.10,SW,229,5.0,-999.0,62,-99.99,,,0.03,weatherlink.com 1.10,2013-07-29 01:02:00,
2013-07-28 19:17:00,62.1,49.0,30.09,WSW,238,2.0,-999.0,62,-99.99,,,0.03,weatherlink.com 1.10,2013-07-29 01:17:00,
2013-07-28 19:32:00,61.6,49.0,30.08,WSW,238,0.0,-999.0,63,-99.99,,,0.03,weatherlink.com 1.10,2013-07-29 01:32:00,
2013-07-28 19:47:00,61.7,49.0,30.08,WSW,238,0.0,-999.0,63,-99.99,,,0.03,weatherlink.com 1.10,2013-07-29 01:47:00,
2013-07-28 20:02:00,61.7,49.0,30.07,WSW,238,2.0,-999.0,63,-99.99,,,0.03,weatherlink.com 1.10,2013-07-29 02:02:00,
2013-07-28 20:17:00,61.6,49.0,30.07,WSW,238,2.0,-999.0,64,-99.99,,,0.03,weatherlink.com 1.10,2013-07-29 02:17:00,
2013-07-28 20:32:00,60.3,50.0,30.07,WSW,238,0.0,-999.0,69,-99.99,,,0.03,weatherlink.com 1.10,2013-07-29 02:32:00,
2013-07-28 20:47:00,59.0,50.0,30.07,WSW,238,0.0,-999.0,71,-99.99,,,0.03,weatherlink.com 1.10,2013-07-29 02:47:00,
2013-07-28 21:17:00,56.9,48.0,30.06,WSW,238,0.0,-999.0,73,-99.99,,,0.03,weatherlink.com 1.10,2013-07-29 03:17:00,
2013-07-28 21:32:00,56.4,48.0,30.07,SW,219,1.0,-999.0,74,-99.99,,,0.03,weatherlink.com 1.10,2013-07-29 03:32:00,
2013-07-28 21:47:00,54.9,48.0,30.07,SW,217,0.0,-999.0,77,-99.99,,,0.03,weatherlink.com 1.10,2013-07-29 03:47:00,
2013-07-28 22:02:00,52.3,46.0,30.08,SSW,204,0.0,-999.0,79,-99.99,,,0.03,weatherlink.com 1.10,2013-07-29 04:02:00,
2013-07-28 22:17:00,53.0,47.0,30.08,SSW,193,1.0,-999.0,79,-99.99,,,0.03,weatherlink.com 1.10,2013-07-29 04:17:00,
2013-07-28 22:32:00,53.1,46.0,30.10,SSW,192,0.0,-999.0,78,-99.99,,,0.03,weatherlink.com 1.10,2013-07-29 04:32:00,
2013-07-28 22:47:00,52.5,45.0,30.09,SSW,192,0.0,-999.0,77,-99.99,,,0.03,weatherlink.com 1.10,2013-07-29 04:47:00,
2013-07-28 23:02:00,51.5,45.0,30.09,SSW,192,1.0,-999.0,78,-99.99,,,0.03,weatherlink.com 1.10,2013-07-29 05:02:00,
2013-07-28 23:17:00,50.9,45.0,30.09,SSW,192,0.0,-999.0,80,-99.99,,,0.03,weatherlink.com 1.10,2013-07-29 05:17:00,
2013-07-28 23:32:00,50.2,44.0,30.09,SSW,192,0.0,-999.0,80,-99.99,,,0.03,weatherlink.com 1.10,2013-07-29 05:32:00,
2013-07-28 23:47:00,49.9,44.0,30.09,SSW,192,0.0,-999.0,81,-99.99,,,0.03,weatherlink.com 1.10,2013-07-29 05:47:00,